sensor_id;sensor_type;location;lat;lon;timestamp;temperature;humidity
41427;DHT22;27171;51.812;19.514;2023-02-15T00:01:54;4.00;99.90
41427;DHT22;27171;51.812;19.514;2023-02-15T00:04:55;3.90;99.90
41427;DHT22;27171;51.812;19.514;2023-02-15T00:07:57;3.90;99.90
41427;DHT22;27171;51.812;19.514;2023-02-15T00:11:08;4.00;99.90
41427;DHT22;27171;51.812;19.514;2023-02-15T00:14:19;4.00;99.90
41427;DHT22;27171;51.812;19.514;2023-02-15T00:17:21;4.00;99.90
41427;DHT22;27171;51.812;19.514;2023-02-15T00:20:22;4.00;99.90
41427;DHT22;27171;51.812;19.514;2023-02-15T00:23:23;4.00;99.90
41427;DHT22;27171;51.812;19.514;2023-02-15T00:26:24;4.00;99.90
41427;DHT22;27171;51.812;19.514;2023-02-15T00:29:26;4.00;99.90
41427;DHT22;27171;51.812;19.514;2023-02-15T00:32:27;4.00;99.90
41427;DHT22;27171;51.812;19.514;2023-02-15T00:35:28;4.00;99.90
41427;DHT22;27171;51.812;19.514;2023-02-15T00:38:30;4.00;99.90
41427;DHT22;27171;51.812;19.514;2023-02-15T00:41:32;3.90;99.90
41427;DHT22;27171;51.812;19.514;2023-02-15T00:44:33;3.90;99.90
41427;DHT22;27171;51.812;19.514;2023-02-15T00:47:34;3.90;99.90
41427;DHT22;27171;51.812;19.514;2023-02-15T00:50:35;3.90;99.90
41427;DHT22;27171;51.812;19.514;2023-02-15T00:53:37;3.90;99.90
41427;DHT22;27171;51.812;19.514;2023-02-15T00:56:38;3.90;99.90
41427;DHT22;27171;51.812;19.514;2023-02-15T00:59:39;3.90;99.90
41427;DHT22;27171;51.812;19.514;2023-02-15T01:02:40;3.90;99.90
41427;DHT22;27171;51.812;19.514;2023-02-15T01:05:42;3.90;99.90
41427;DHT22;27171;51.812;19.514;2023-02-15T01:08:44;3.80;99.90
41427;DHT22;27171;51.812;19.514;2023-02-15T01:11:46;3.80;99.90
41427;DHT22;27171;51.812;19.514;2023-02-15T01:14:47;3.90;99.90
41427;DHT22;27171;51.812;19.514;2023-02-15T01:17:48;3.90;99.90
41427;DHT22;27171;51.812;19.514;2023-02-15T01:20:49;3.90;99.90
41427;DHT22;27171;51.812;19.514;2023-02-15T01:23:50;3.90;99.90
41427;DHT22;27171;51.812;19.514;2023-02-15T01:26:51;3.90;99.90
41427;DHT22;27171;51.812;19.514;2023-02-15T01:29:53;3.80;99.90
41427;DHT22;27171;51.812;19.514;2023-02-15T01:32:56;3.90;99.90
41427;DHT22;27171;51.812;19.514;2023-02-15T01:35:58;3.90;99.90
41427;DHT22;27171;51.812;19.514;2023-02-15T01:39:00;3.90;99.90
41427;DHT22;27171;51.812;19.514;2023-02-15T01:42:02;3.90;99.90
41427;DHT22;27171;51.812;19.514;2023-02-15T01:45:05;3.90;99.90
41427;DHT22;27171;51.812;19.514;2023-02-15T01:48:24;3.90;99.90
41427;DHT22;27171;51.812;19.514;2023-02-15T01:51:27;3.80;99.90
41427;DHT22;27171;51.812;19.514;2023-02-15T01:54:32;3.80;99.90
41427;DHT22;27171;51.812;19.514;2023-02-15T01:57:34;3.80;99.90
41427;DHT22;27171;51.812;19.514;2023-02-15T02:00:37;3.80;99.90
41427;DHT22;27171;51.812;19.514;2023-02-15T02:06:54;3.80;99.90
41427;DHT22;27171;51.812;19.514;2023-02-15T02:09:58;3.80;99.90
41427;DHT22;27171;51.812;19.514;2023-02-15T02:12:59;3.80;99.90
41427;DHT22;27171;51.812;19.514;2023-02-15T02:16:08;3.80;99.90
41427;DHT22;27171;51.812;19.514;2023-02-15T02:37:37;3.70;99.90
41427;DHT22;27171;51.812;19.514;2023-02-15T02:40:55;3.70;99.90
41427;DHT22;27171;51.812;19.514;2023-02-15T02:47:45;3.60;99.90
41427;DHT22;27171;51.812;19.514;2023-02-15T02:50:49;3.60;99.90
41427;DHT22;27171;51.812;19.514;2023-02-15T02:53:54;3.60;99.90
41427;DHT22;27171;51.812;19.514;2023-02-15T02:56:56;3.60;99.90
41427;DHT22;27171;51.812;19.514;2023-02-15T03:00:02;3.60;99.90
41427;DHT22;27171;51.812;19.514;2023-02-15T03:03:20;3.50;99.90
41427;DHT22;27171;51.812;19.514;2023-02-15T03:06:37;3.50;99.90
41427;DHT22;27171;51.812;19.514;2023-02-15T03:09:43;3.50;99.90
41427;DHT22;27171;51.812;19.514;2023-02-15T03:12:48;3.50;99.90
41427;DHT22;27171;51.812;19.514;2023-02-15T03:15:51;3.50;99.90
41427;DHT22;27171;51.812;19.514;2023-02-15T03:18:57;3.50;99.90
41427;DHT22;27171;51.812;19.514;2023-02-15T03:22:08;3.50;99.90
41427;DHT22;27171;51.812;19.514;2023-02-15T03:25:22;3.50;99.90
41427;DHT22;27171;51.812;19.514;2023-02-15T03:28:52;3.50;99.90
41427;DHT22;27171;51.812;19.514;2023-02-15T03:32:00;3.50;99.90
41427;DHT22;27171;51.812;19.514;2023-02-15T03:35:01;3.50;99.90
41427;DHT22;27171;51.812;19.514;2023-02-15T03:38:05;3.50;99.90
41427;DHT22;27171;51.812;19.514;2023-02-15T03:41:07;3.50;99.90
41427;DHT22;27171;51.812;19.514;2023-02-15T03:44:18;3.50;99.90
41427;DHT22;27171;51.812;19.514;2023-02-15T03:47:26;3.50;99.90
41427;DHT22;27171;51.812;19.514;2023-02-15T03:50:31;3.50;99.90
41427;DHT22;27171;51.812;19.514;2023-02-15T03:53:33;3.50;99.90
41427;DHT22;27171;51.812;19.514;2023-02-15T03:56:37;3.50;99.90
41427;DHT22;27171;51.812;19.514;2023-02-15T03:59:38;3.50;99.90
41427;DHT22;27171;51.812;19.514;2023-02-15T04:02:40;3.60;99.90
41427;DHT22;27171;51.812;19.514;2023-02-15T04:05:44;3.60;99.90
41427;DHT22;27171;51.812;19.514;2023-02-15T04:08:45;3.60;99.90
41427;DHT22;27171;51.812;19.514;2023-02-15T04:11:46;3.60;99.90
41427;DHT22;27171;51.812;19.514;2023-02-15T04:14:47;3.60;99.90
41427;DHT22;27171;51.812;19.514;2023-02-15T04:17:48;3.60;99.90
41427;DHT22;27171;51.812;19.514;2023-02-15T04:20:49;3.60;99.90
41427;DHT22;27171;51.812;19.514;2023-02-15T04:23:50;3.60;99.90
41427;DHT22;27171;51.812;19.514;2023-02-15T04:26:52;3.60;99.90
41427;DHT22;27171;51.812;19.514;2023-02-15T04:29:53;3.60;99.90
41427;DHT22;27171;51.812;19.514;2023-02-15T04:32:54;3.60;99.90
41427;DHT22;27171;51.812;19.514;2023-02-15T04:35:55;3.70;99.90
41427;DHT22;27171;51.812;19.514;2023-02-15T04:38:56;3.60;99.90
41427;DHT22;27171;51.812;19.514;2023-02-15T04:41:57;3.60;99.90
41427;DHT22;27171;51.812;19.514;2023-02-15T04:44:58;3.70;99.90
41427;DHT22;27171;51.812;19.514;2023-02-15T04:47:59;3.70;99.90
41427;DHT22;27171;51.812;19.514;2023-02-15T04:51:05;3.70;99.90
41427;DHT22;27171;51.812;19.514;2023-02-15T04:54:07;3.70;99.90
41427;DHT22;27171;51.812;19.514;2023-02-15T04:57:08;3.70;99.90
41427;DHT22;27171;51.812;19.514;2023-02-15T05:00:10;3.70;99.90
41427;DHT22;27171;51.812;19.514;2023-02-15T05:03:11;3.70;99.90
41427;DHT22;27171;51.812;19.514;2023-02-15T05:06:12;3.70;99.90
41427;DHT22;27171;51.812;19.514;2023-02-15T05:09:13;3.70;99.90
41427;DHT22;27171;51.812;19.514;2023-02-15T05:12:15;3.60;99.90
41427;DHT22;27171;51.812;19.514;2023-02-15T05:15:16;3.60;99.90
41427;DHT22;27171;51.812;19.514;2023-02-15T05:18:18;3.60;99.90
41427;DHT22;27171;51.812;19.514;2023-02-15T05:21:20;3.70;99.90
41427;DHT22;27171;51.812;19.514;2023-02-15T05:24:22;3.60;99.90
41427;DHT22;27171;51.812;19.514;2023-02-15T05:27:23;3.70;99.90
41427;DHT22;27171;51.812;19.514;2023-02-15T05:30:24;3.70;99.90
41427;DHT22;27171;51.812;19.514;2023-02-15T05:33:25;3.70;99.90
41427;DHT22;27171;51.812;19.514;2023-02-15T05:36:27;3.70;99.90
41427;DHT22;27171;51.812;19.514;2023-02-15T05:39:28;3.70;99.90
41427;DHT22;27171;51.812;19.514;2023-02-15T05:42:28;3.60;99.90
41427;DHT22;27171;51.812;19.514;2023-02-15T05:45:30;3.60;99.90
41427;DHT22;27171;51.812;19.514;2023-02-15T05:48:31;3.70;99.90
41427;DHT22;27171;51.812;19.514;2023-02-15T05:51:32;3.70;99.90
41427;DHT22;27171;51.812;19.514;2023-02-15T05:54:33;3.70;99.90
41427;DHT22;27171;51.812;19.514;2023-02-15T05:57:35;3.70;99.90
41427;DHT22;27171;51.812;19.514;2023-02-15T06:00:36;3.70;99.90
41427;DHT22;27171;51.812;19.514;2023-02-15T06:03:37;3.70;99.90
41427;DHT22;27171;51.812;19.514;2023-02-15T06:06:38;3.70;99.90
41427;DHT22;27171;51.812;19.514;2023-02-15T06:09:39;3.70;99.90
41427;DHT22;27171;51.812;19.514;2023-02-15T06:12:40;3.70;99.90
41427;DHT22;27171;51.812;19.514;2023-02-15T06:15:41;3.70;99.90
41427;DHT22;27171;51.812;19.514;2023-02-15T06:18:42;3.70;99.90
41427;DHT22;27171;51.812;19.514;2023-02-15T06:21:43;3.60;99.90
41427;DHT22;27171;51.812;19.514;2023-02-15T06:24:44;3.60;99.90
41427;DHT22;27171;51.812;19.514;2023-02-15T06:27:45;3.60;99.90
41427;DHT22;27171;51.812;19.514;2023-02-15T06:30:46;3.60;99.90
41427;DHT22;27171;51.812;19.514;2023-02-15T06:33:47;3.70;99.90
41427;DHT22;27171;51.812;19.514;2023-02-15T06:36:48;3.60;99.90
41427;DHT22;27171;51.812;19.514;2023-02-15T06:39:49;3.70;99.90
41427;DHT22;27171;51.812;19.514;2023-02-15T06:42:50;3.70;99.90
41427;DHT22;27171;51.812;19.514;2023-02-15T06:45:51;3.70;99.90
41427;DHT22;27171;51.812;19.514;2023-02-15T06:48:52;3.70;99.90
41427;DHT22;27171;51.812;19.514;2023-02-15T06:51:53;3.70;99.90
41427;DHT22;27171;51.812;19.514;2023-02-15T06:54:54;3.70;99.90
41427;DHT22;27171;51.812;19.514;2023-02-15T06:57:55;3.60;99.90
41427;DHT22;27171;51.812;19.514;2023-02-15T07:00:56;3.70;99.90
41427;DHT22;27171;51.812;19.514;2023-02-15T07:03:57;3.70;99.90
41427;DHT22;27171;51.812;19.514;2023-02-15T07:06:58;3.70;99.90
41427;DHT22;27171;51.812;19.514;2023-02-15T07:09:59;3.70;99.90
41427;DHT22;27171;51.812;19.514;2023-02-15T07:13:00;3.70;99.90
41427;DHT22;27171;51.812;19.514;2023-02-15T07:16:01;3.70;99.90
41427;DHT22;27171;51.812;19.514;2023-02-15T07:19:02;3.70;99.90
41427;DHT22;27171;51.812;19.514;2023-02-15T07:22:03;3.70;99.90
41427;DHT22;27171;51.812;19.514;2023-02-15T07:25:06;3.70;99.90
41427;DHT22;27171;51.812;19.514;2023-02-15T07:28:08;3.70;99.90
41427;DHT22;27171;51.812;19.514;2023-02-15T07:31:09;3.70;99.90
41427;DHT22;27171;51.812;19.514;2023-02-15T07:34:10;3.70;99.90
41427;DHT22;27171;51.812;19.514;2023-02-15T07:37:10;3.70;99.90
41427;DHT22;27171;51.812;19.514;2023-02-15T07:40:12;3.70;99.90
41427;DHT22;27171;51.812;19.514;2023-02-15T07:43:13;3.70;99.90
41427;DHT22;27171;51.812;19.514;2023-02-15T07:46:15;3.80;99.90
41427;DHT22;27171;51.812;19.514;2023-02-15T07:49:16;3.80;99.90
41427;DHT22;27171;51.812;19.514;2023-02-15T07:52:17;3.80;99.90
41427;DHT22;27171;51.812;19.514;2023-02-15T07:55:18;3.80;99.90
41427;DHT22;27171;51.812;19.514;2023-02-15T07:58:19;3.80;99.90
41427;DHT22;27171;51.812;19.514;2023-02-15T08:01:26;3.80;99.90
41427;DHT22;27171;51.812;19.514;2023-02-15T08:04:27;3.80;99.90
41427;DHT22;27171;51.812;19.514;2023-02-15T08:07:28;3.80;99.90
41427;DHT22;27171;51.812;19.514;2023-02-15T08:10:29;3.80;99.90
41427;DHT22;27171;51.812;19.514;2023-02-15T08:13:30;3.80;99.90
41427;DHT22;27171;51.812;19.514;2023-02-15T08:16:37;3.80;99.90
41427;DHT22;27171;51.812;19.514;2023-02-15T08:19:38;3.80;99.90
41427;DHT22;27171;51.812;19.514;2023-02-15T08:22:39;3.90;99.90
41427;DHT22;27171;51.812;19.514;2023-02-15T08:25:40;3.90;99.90
41427;DHT22;27171;51.812;19.514;2023-02-15T08:28:41;3.90;99.90
41427;DHT22;27171;51.812;19.514;2023-02-15T08:31:42;3.90;99.90
41427;DHT22;27171;51.812;19.514;2023-02-15T08:34:43;3.90;99.90
41427;DHT22;27171;51.812;19.514;2023-02-15T08:37:44;3.90;99.90
41427;DHT22;27171;51.812;19.514;2023-02-15T08:40:45;3.90;99.90
41427;DHT22;27171;51.812;19.514;2023-02-15T08:43:48;3.90;99.90
41427;DHT22;27171;51.812;19.514;2023-02-15T08:46:50;3.90;99.90
41427;DHT22;27171;51.812;19.514;2023-02-15T08:49:51;3.90;99.90
41427;DHT22;27171;51.812;19.514;2023-02-15T08:52:52;3.90;99.90
41427;DHT22;27171;51.812;19.514;2023-02-15T08:55:57;3.90;99.90
41427;DHT22;27171;51.812;19.514;2023-02-15T08:58:58;3.90;99.90
41427;DHT22;27171;51.812;19.514;2023-02-15T09:02:01;3.90;99.90
41427;DHT22;27171;51.812;19.514;2023-02-15T09:05:02;3.90;99.90
41427;DHT22;27171;51.812;19.514;2023-02-15T09:08:03;4.00;99.90
41427;DHT22;27171;51.812;19.514;2023-02-15T09:11:10;4.00;99.90
41427;DHT22;27171;51.812;19.514;2023-02-15T09:14:17;4.00;99.90
41427;DHT22;27171;51.812;19.514;2023-02-15T09:17:19;4.00;99.90
41427;DHT22;27171;51.812;19.514;2023-02-15T09:20:20;4.10;99.90
41427;DHT22;27171;51.812;19.514;2023-02-15T09:23:21;4.10;99.90
41427;DHT22;27171;51.812;19.514;2023-02-15T09:26:24;4.10;99.90
41427;DHT22;27171;51.812;19.514;2023-02-15T09:29:25;4.10;99.90
41427;DHT22;27171;51.812;19.514;2023-02-15T09:32:26;4.10;99.90
41427;DHT22;27171;51.812;19.514;2023-02-15T09:35:27;4.10;99.90
41427;DHT22;27171;51.812;19.514;2023-02-15T09:38:29;4.20;99.90
41427;DHT22;27171;51.812;19.514;2023-02-15T09:51:46;4.30;99.90
41427;DHT22;27171;51.812;19.514;2023-02-15T09:55:03;4.30;99.90
41427;DHT22;27171;51.812;19.514;2023-02-15T10:01:48;4.30;99.90
41427;DHT22;27171;51.812;19.514;2023-02-15T10:12:28;4.30;99.90
41427;DHT22;27171;51.812;19.514;2023-02-15T10:19:01;4.20;99.90
41427;DHT22;27171;51.812;19.514;2023-02-15T10:32:26;4.20;99.90
41427;DHT22;27171;51.812;19.514;2023-02-15T10:35:47;4.20;99.90
41427;DHT22;27171;51.812;19.514;2023-02-15T10:53:57;4.20;99.90
41427;DHT22;27171;51.812;19.514;2023-02-15T10:57:20;4.20;99.90
41427;DHT22;27171;51.812;19.514;2023-02-15T11:03:45;4.20;99.90
41427;DHT22;27171;51.812;19.514;2023-02-15T11:06:56;4.10;99.90
41427;DHT22;27171;51.812;19.514;2023-02-15T11:13:22;4.10;99.90
41427;DHT22;27171;51.812;19.514;2023-02-15T11:16:30;4.10;99.90
41427;DHT22;27171;51.812;19.514;2023-02-15T11:19:41;4.10;99.90
41427;DHT22;27171;51.812;19.514;2023-02-15T11:22:51;4.10;99.90
41427;DHT22;27171;51.812;19.514;2023-02-15T11:26:11;4.10;99.90
41427;DHT22;27171;51.812;19.514;2023-02-15T11:32:40;4.00;99.90
41427;DHT22;27171;51.812;19.514;2023-02-15T11:36:06;4.00;99.90
41427;DHT22;27171;51.812;19.514;2023-02-15T11:39:14;4.10;99.90
41427;DHT22;27171;51.812;19.514;2023-02-15T11:42:19;4.10;99.90
41427;DHT22;27171;51.812;19.514;2023-02-15T11:45:29;4.10;99.90
41427;DHT22;27171;51.812;19.514;2023-02-15T11:48:32;4.10;99.90
41427;DHT22;27171;51.812;19.514;2023-02-15T11:51:35;4.10;99.90
41427;DHT22;27171;51.812;19.514;2023-02-15T11:54:43;4.10;99.90
41427;DHT22;27171;51.812;19.514;2023-02-15T12:04:22;4.10;99.90
41427;DHT22;27171;51.812;19.514;2023-02-15T12:07:36;4.00;99.90
41427;DHT22;27171;51.812;19.514;2023-02-15T12:14:02;4.00;99.90
41427;DHT22;27171;51.812;19.514;2023-02-15T12:17:03;4.00;99.90
41427;DHT22;27171;51.812;19.514;2023-02-15T12:20:25;4.00;99.90
41427;DHT22;27171;51.812;19.514;2023-02-15T12:23:29;4.10;99.90
41427;DHT22;27171;51.812;19.514;2023-02-15T12:26:32;4.10;99.90
41427;DHT22;27171;51.812;19.514;2023-02-15T12:29:41;4.10;99.90
41427;DHT22;27171;51.812;19.514;2023-02-15T12:32:54;4.10;99.90
41427;DHT22;27171;51.812;19.514;2023-02-15T12:39:57;4.10;99.90
41427;DHT22;27171;51.812;19.514;2023-02-15T12:43:02;4.10;99.90
41427;DHT22;27171;51.812;19.514;2023-02-15T12:49:23;4.10;99.90
41427;DHT22;27171;51.812;19.514;2023-02-15T12:52:25;4.00;99.90
41427;DHT22;27171;51.812;19.514;2023-02-15T12:55:27;4.00;99.90
41427;DHT22;27171;51.812;19.514;2023-02-15T12:58:30;4.00;99.90
41427;DHT22;27171;51.812;19.514;2023-02-15T13:01:32;4.10;99.90
41427;DHT22;27171;51.812;19.514;2023-02-15T13:04:33;4.00;99.90
41427;DHT22;27171;51.812;19.514;2023-02-15T13:07:34;4.00;99.90
41427;DHT22;27171;51.812;19.514;2023-02-15T13:10:39;4.00;99.90
41427;DHT22;27171;51.812;19.514;2023-02-15T13:13:56;4.00;99.90
41427;DHT22;27171;51.812;19.514;2023-02-15T13:17:01;4.00;99.90
41427;DHT22;27171;51.812;19.514;2023-02-15T13:20:16;4.00;99.90
41427;DHT22;27171;51.812;19.514;2023-02-15T13:26:28;3.90;99.90
41427;DHT22;27171;51.812;19.514;2023-02-15T13:29:34;3.90;99.90
41427;DHT22;27171;51.812;19.514;2023-02-15T13:32:38;3.90;99.90
41427;DHT22;27171;51.812;19.514;2023-02-15T13:39:16;3.90;99.90
41427;DHT22;27171;51.812;19.514;2023-02-15T13:52:20;4.00;99.90
41427;DHT22;27171;51.812;19.514;2023-02-15T13:55:37;4.00;99.90
41427;DHT22;27171;51.812;19.514;2023-02-15T14:05:36;3.90;99.90
41427;DHT22;27171;51.812;19.514;2023-02-15T14:15:47;3.90;99.90
41427;DHT22;27171;51.812;19.514;2023-02-15T14:22:41;3.90;99.90
41427;DHT22;27171;51.812;19.514;2023-02-15T14:26:00;3.90;99.90
41427;DHT22;27171;51.812;19.514;2023-02-15T14:32:31;3.90;99.90
41427;DHT22;27171;51.812;19.514;2023-02-15T14:35:34;3.80;99.90
41427;DHT22;27171;51.812;19.514;2023-02-15T14:42:01;3.80;99.90
41427;DHT22;27171;51.812;19.514;2023-02-15T14:48:16;3.80;99.90
41427;DHT22;27171;51.812;19.514;2023-02-15T14:57:55;3.70;99.90
41427;DHT22;27171;51.812;19.514;2023-02-15T15:01:03;3.70;99.90
41427;DHT22;27171;51.812;19.514;2023-02-15T15:04:09;3.60;99.90
41427;DHT22;27171;51.812;19.514;2023-02-15T15:22:48;3.40;99.90
41427;DHT22;27171;51.812;19.514;2023-02-15T15:25:56;3.40;99.90
41427;DHT22;27171;51.812;19.514;2023-02-15T15:29:00;3.40;99.90
41427;DHT22;27171;51.812;19.514;2023-02-15T15:32:01;3.40;99.90
41427;DHT22;27171;51.812;19.514;2023-02-15T15:42:01;3.30;99.90
41427;DHT22;27171;51.812;19.514;2023-02-15T15:48:40;3.30;99.90
41427;DHT22;27171;51.812;19.514;2023-02-15T15:51:49;3.30;99.90
41427;DHT22;27171;51.812;19.514;2023-02-15T15:55:02;3.20;99.90
41427;DHT22;27171;51.812;19.514;2023-02-15T15:58:06;3.20;99.90
41427;DHT22;27171;51.812;19.514;2023-02-15T16:01:10;3.20;99.90
41427;DHT22;27171;51.812;19.514;2023-02-15T16:04:13;3.20;99.90
41427;DHT22;27171;51.812;19.514;2023-02-15T16:10:24;3.10;99.90
41427;DHT22;27171;51.812;19.514;2023-02-15T16:13:26;3.10;99.90
41427;DHT22;27171;51.812;19.514;2023-02-15T16:16:28;3.10;99.90
41427;DHT22;27171;51.812;19.514;2023-02-15T16:19:38;3.00;99.90
41427;DHT22;27171;51.812;19.514;2023-02-15T16:22:40;2.90;99.90
41427;DHT22;27171;51.812;19.514;2023-02-15T16:29:31;2.90;99.90
41427;DHT22;27171;51.812;19.514;2023-02-15T16:32:33;2.80;99.90
41427;DHT22;27171;51.812;19.514;2023-02-15T16:35:35;2.80;99.90
41427;DHT22;27171;51.812;19.514;2023-02-15T16:41:44;2.70;99.90
41427;DHT22;27171;51.812;19.514;2023-02-15T16:45:08;2.60;99.90
41427;DHT22;27171;51.812;19.514;2023-02-15T16:48:16;2.60;99.90
41427;DHT22;27171;51.812;19.514;2023-02-15T16:51:21;2.50;99.90
41427;DHT22;27171;51.812;19.514;2023-02-15T16:54:24;2.40;99.90
41427;DHT22;27171;51.812;19.514;2023-02-15T16:57:32;2.40;99.90
41427;DHT22;27171;51.812;19.514;2023-02-15T17:00:38;2.30;99.90
41427;DHT22;27171;51.812;19.514;2023-02-15T17:03:40;2.30;99.90
41427;DHT22;27171;51.812;19.514;2023-02-15T17:07:02;2.20;99.90
41427;DHT22;27171;51.812;19.514;2023-02-15T17:13:28;2.10;99.90
41427;DHT22;27171;51.812;19.514;2023-02-15T17:16:31;2.10;99.90
41427;DHT22;27171;51.812;19.514;2023-02-15T17:22:43;2.00;99.90
41427;DHT22;27171;51.812;19.514;2023-02-15T17:25:45;1.90;99.90
41427;DHT22;27171;51.812;19.514;2023-02-15T17:28:58;1.90;99.90
41427;DHT22;27171;51.812;19.514;2023-02-15T17:32:01;1.90;99.90
41427;DHT22;27171;51.812;19.514;2023-02-15T17:38:19;1.80;99.90
41427;DHT22;27171;51.812;19.514;2023-02-15T17:41:20;1.80;99.90
41427;DHT22;27171;51.812;19.514;2023-02-15T17:44:21;1.70;99.90
41427;DHT22;27171;51.812;19.514;2023-02-15T17:47:23;1.70;99.90
41427;DHT22;27171;51.812;19.514;2023-02-15T17:50:26;1.70;99.90
41427;DHT22;27171;51.812;19.514;2023-02-15T17:53:29;1.70;99.90
41427;DHT22;27171;51.812;19.514;2023-02-15T17:56:32;1.60;99.90
41427;DHT22;27171;51.812;19.514;2023-02-15T17:59:41;1.60;99.90
41427;DHT22;27171;51.812;19.514;2023-02-15T18:02:43;1.60;99.90
41427;DHT22;27171;51.812;19.514;2023-02-15T18:05:44;1.60;99.90
41427;DHT22;27171;51.812;19.514;2023-02-15T18:08:46;1.50;99.90
41427;DHT22;27171;51.812;19.514;2023-02-15T18:11:52;1.50;99.90
41427;DHT22;27171;51.812;19.514;2023-02-15T18:14:54;1.50;99.90
41427;DHT22;27171;51.812;19.514;2023-02-15T18:17:56;1.50;99.90
41427;DHT22;27171;51.812;19.514;2023-02-15T18:20:57;1.50;99.90
41427;DHT22;27171;51.812;19.514;2023-02-15T18:23:59;1.50;99.90
41427;DHT22;27171;51.812;19.514;2023-02-15T18:27:01;1.40;99.90
41427;DHT22;27171;51.812;19.514;2023-02-15T18:30:02;1.40;99.90
41427;DHT22;27171;51.812;19.514;2023-02-15T18:33:09;1.40;99.90
41427;DHT22;27171;51.812;19.514;2023-02-15T18:36:28;1.40;99.90
41427;DHT22;27171;51.812;19.514;2023-02-15T18:42:37;1.40;99.90
41427;DHT22;27171;51.812;19.514;2023-02-15T18:45:40;1.30;99.90
41427;DHT22;27171;51.812;19.514;2023-02-15T18:48:42;1.30;99.90
41427;DHT22;27171;51.812;19.514;2023-02-15T18:51:45;1.40;99.90
41427;DHT22;27171;51.812;19.514;2023-02-15T18:54:55;1.30;99.90
41427;DHT22;27171;51.812;19.514;2023-02-15T18:58:03;1.30;99.90
41427;DHT22;27171;51.812;19.514;2023-02-15T19:01:05;1.40;99.90
41427;DHT22;27171;51.812;19.514;2023-02-15T19:04:09;1.40;99.90
41427;DHT22;27171;51.812;19.514;2023-02-15T19:07:19;1.40;99.90
41427;DHT22;27171;51.812;19.514;2023-02-15T19:10:26;1.40;99.90
41427;DHT22;27171;51.812;19.514;2023-02-15T19:13:29;1.40;99.90
41427;DHT22;27171;51.812;19.514;2023-02-15T19:16:32;1.40;99.90
41427;DHT22;27171;51.812;19.514;2023-02-15T19:19:48;1.40;99.90
41427;DHT22;27171;51.812;19.514;2023-02-15T19:22:52;1.40;99.90
41427;DHT22;27171;51.812;19.514;2023-02-15T19:25:55;1.40;99.90
41427;DHT22;27171;51.812;19.514;2023-02-15T19:29:04;1.40;99.90
41427;DHT22;27171;51.812;19.514;2023-02-15T19:32:10;1.40;99.90
41427;DHT22;27171;51.812;19.514;2023-02-15T19:35:21;1.40;99.90
41427;DHT22;27171;51.812;19.514;2023-02-15T19:38:29;1.40;99.90
41427;DHT22;27171;51.812;19.514;2023-02-15T19:41:35;1.40;99.90
41427;DHT22;27171;51.812;19.514;2023-02-15T19:44:39;1.40;99.90
41427;DHT22;27171;51.812;19.514;2023-02-15T19:47:43;1.40;99.90
41427;DHT22;27171;51.812;19.514;2023-02-15T19:50:47;1.40;99.90
41427;DHT22;27171;51.812;19.514;2023-02-15T19:53:55;1.40;99.90
41427;DHT22;27171;51.812;19.514;2023-02-15T19:57:09;1.40;99.90
41427;DHT22;27171;51.812;19.514;2023-02-15T20:00:22;1.30;99.90
41427;DHT22;27171;51.812;19.514;2023-02-15T20:03:26;1.40;99.90
41427;DHT22;27171;51.812;19.514;2023-02-15T20:06:29;1.30;99.90
41427;DHT22;27171;51.812;19.514;2023-02-15T20:09:32;1.30;99.90
41427;DHT22;27171;51.812;19.514;2023-02-15T20:12:35;1.30;99.90
41427;DHT22;27171;51.812;19.514;2023-02-15T20:15:43;1.30;99.90
41427;DHT22;27171;51.812;19.514;2023-02-15T20:18:46;1.30;99.90
41427;DHT22;27171;51.812;19.514;2023-02-15T20:21:49;1.30;99.90
41427;DHT22;27171;51.812;19.514;2023-02-15T20:24:53;1.30;99.90
41427;DHT22;27171;51.812;19.514;2023-02-15T20:27:55;1.30;99.90
41427;DHT22;27171;51.812;19.514;2023-02-15T20:30:57;1.30;99.90
41427;DHT22;27171;51.812;19.514;2023-02-15T20:33:59;1.30;99.90
41427;DHT22;27171;51.812;19.514;2023-02-15T20:37:02;1.30;99.90
41427;DHT22;27171;51.812;19.514;2023-02-15T20:40:13;1.30;99.90
41427;DHT22;27171;51.812;19.514;2023-02-15T20:43:14;1.30;99.90
41427;DHT22;27171;51.812;19.514;2023-02-15T20:46:15;1.30;99.90
41427;DHT22;27171;51.812;19.514;2023-02-15T20:49:17;1.30;99.90
41427;DHT22;27171;51.812;19.514;2023-02-15T20:52:20;1.30;99.90
41427;DHT22;27171;51.812;19.514;2023-02-15T20:55:29;1.20;99.90
41427;DHT22;27171;51.812;19.514;2023-02-15T20:58:30;1.30;99.90
41427;DHT22;27171;51.812;19.514;2023-02-15T21:01:32;1.20;99.90
41427;DHT22;27171;51.812;19.514;2023-02-15T21:04:34;1.20;99.90
41427;DHT22;27171;51.812;19.514;2023-02-15T21:07:36;1.20;99.90
41427;DHT22;27171;51.812;19.514;2023-02-15T21:10:38;1.20;99.90
41427;DHT22;27171;51.812;19.514;2023-02-15T21:13:39;1.20;99.90
41427;DHT22;27171;51.812;19.514;2023-02-15T21:16:40;1.20;99.90
41427;DHT22;27171;51.812;19.514;2023-02-15T21:19:42;1.20;99.90
41427;DHT22;27171;51.812;19.514;2023-02-15T21:22:44;1.20;99.90
41427;DHT22;27171;51.812;19.514;2023-02-15T21:25:47;1.20;99.90
41427;DHT22;27171;51.812;19.514;2023-02-15T21:28:49;1.20;99.90
41427;DHT22;27171;51.812;19.514;2023-02-15T21:31:51;1.10;99.90
41427;DHT22;27171;51.812;19.514;2023-02-15T21:34:52;1.20;99.90
41427;DHT22;27171;51.812;19.514;2023-02-15T21:37:54;1.10;99.90
41427;DHT22;27171;51.812;19.514;2023-02-15T21:40:57;1.10;99.90
41427;DHT22;27171;51.812;19.514;2023-02-15T21:44:19;1.10;99.90
41427;DHT22;27171;51.812;19.514;2023-02-15T21:47:21;1.10;99.90
41427;DHT22;27171;51.812;19.514;2023-02-15T21:50:23;1.10;99.90
41427;DHT22;27171;51.812;19.514;2023-02-15T21:53:38;1.10;99.90
41427;DHT22;27171;51.812;19.514;2023-02-15T21:56:40;1.10;99.90
41427;DHT22;27171;51.812;19.514;2023-02-15T21:59:42;1.10;99.90
41427;DHT22;27171;51.812;19.514;2023-02-15T22:02:45;1.10;99.90
41427;DHT22;27171;51.812;19.514;2023-02-15T22:05:47;1.10;99.90
41427;DHT22;27171;51.812;19.514;2023-02-15T22:08:48;1.10;99.90
41427;DHT22;27171;51.812;19.514;2023-02-15T22:11:50;1.10;99.90
41427;DHT22;27171;51.812;19.514;2023-02-15T22:14:52;1.10;99.90
41427;DHT22;27171;51.812;19.514;2023-02-15T22:17:54;1.10;99.90
41427;DHT22;27171;51.812;19.514;2023-02-15T22:20:56;1.10;99.90
41427;DHT22;27171;51.812;19.514;2023-02-15T22:23:58;1.10;99.90
41427;DHT22;27171;51.812;19.514;2023-02-15T22:26:59;1.10;99.90
41427;DHT22;27171;51.812;19.514;2023-02-15T22:30:00;1.10;99.90
41427;DHT22;27171;51.812;19.514;2023-02-15T22:33:03;1.10;99.90
41427;DHT22;27171;51.812;19.514;2023-02-15T22:36:04;1.00;99.90
41427;DHT22;27171;51.812;19.514;2023-02-15T22:39:06;1.00;99.90
41427;DHT22;27171;51.812;19.514;2023-02-15T22:42:22;1.00;99.90
41427;DHT22;27171;51.812;19.514;2023-02-15T22:45:25;1.00;99.90